Ship Status Report: callsign BR3037

sailwx.info

Track history (hours):
 
Tides and Currents Weather Stations Pressure Air Temp Water Temp Dewpoint Dewpoint Depression Visibility Wind Speed Wind Dir Waves Ship Positions

Oceanographic research ship ()

Last reported at 2019-Aug-17 12:28 UTC. Time now 2019-Sep-21 17:29 UTC.
Position N 22°36' E 120°17'.
Warning: this ship's position is 35 days out of date.

Length 39 m.

Type: Other ship. MMSI: 416926000.

Date/timePositionNaut miles runAvg speedWind from/ knotsBaromVisibWave heightAir tempDewpointWater temp
2019-Aug-17 12:28N 22°36' E 120°17'2 3.5
2019-Aug-17 12:00N 22°37' E 120°16'5 9.5
2019-Aug-17 11:30N 22°39' E 120°11'4 8.0
2019-Aug-17 11:00N 22°42' E 120°09'  
2019-Aug-15 03:08N 22°38' E 120°12'1 5.5
2019-Aug-15 02:53N 22°38' E 120°14'2 6.5
2019-Aug-15 02:30N 22°37' E 120°16'1 2.0
2019-Aug-15 01:51N 22°36' E 120°17'0 0.0
2019-Aug-15 01:27N 22°36' E 120°17'0 0.0
2019-Aug-15 00:54N 22°36' E 120°17'  
Track history (hours):
 
Tides and Currents Weather Stations Pressure Air Temp Water Temp Dewpoint Dewpoint Depression Visibility Wind Speed Wind Dir Waves Ship Positions

Oceanographic research ship ()

Last reported at 2019-Aug-17 12:28 UTC. Time now 2019-Sep-21 17:29 UTC.
Position N 22°36' E 120°17'.
Warning: this ship's position is 35 days out of date.

Length 39 m.

Type: Other ship. MMSI: 416926000.

Date/timePositionNaut miles runAvg speedWind from/ knotsBaromVisibWave heightAir tempDewpointWater temp
2019-Aug-17 12:28N 22°36' E 120°17'2 3.5
2019-Aug-17 12:00N 22°37' E 120°16'5 9.5
2019-Aug-17 11:30N 22°39' E 120°11'4 8.0
2019-Aug-17 11:00N 22°42' E 120°09'  
2019-Aug-15 03:08N 22°38' E 120°12'1 5.5
2019-Aug-15 02:53N 22°38' E 120°14'2 6.5
2019-Aug-15 02:30N 22°37' E 120°16'1 2.0
2019-Aug-15 01:51N 22°36' E 120°17'0 0.0
2019-Aug-15 01:27N 22°36' E 120°17'0 0.0
2019-Aug-15 00:54N 22°36' E 120°17'  

Dump ship's entire track history